Hlavní strana
METAR-TAF:

METAR-TAF

Letiště :

Sogndal, Norsko

zeměpisná šířka: 61-09N, zeměpisná délka: 007-08E, výška: 49 m

Aktuální stav počasí

Zpráva byla vytvořena před 1 hodinou a 59 minutami, v 20:20 UTC
Západní vítr 7 kt
Teplota 2°C
Vlhkost vzduchu 75%
Tlak 1031 hPa
Viditelnost 10 km a více
Skoro jasno ve výšce 3000 ft

METAR: ENSG 282020Z 26007KT 9999 FEW030 02/M02 Q1031 RMK WIND 3806FT 27013KT

Čas: 23:19 (22:19 UTC)


TAF: chybějící

Stav a předpovědi počasí z více než 4 000 letišť (zprávy METAR a TAF).

Červené a žluté tečky na mapě představují dostupné meteorologické stanice.

Když kurzor umístíte na tečku, zobrazí se název stanice.

Pak kliknutím zobrazíte stav a předpověď počasí.

Chcete-li změnit mapu, kliknutím na zelené tlačítko se znaménkem +mapu přiblížíte, kliknutím na zelené tlačítko se znaménkem – mapu oddálíte a kliknutím na zelené šipky přejdete na sousední mapy.


METAR-TAF: